Assinippi, Massachusetts
Current Conditions -  °F | °C
As of 9:30 AM on Thursday 23 Oct 2014 (Local Time) from KGHG Reporting Station
Overcast Overcast  
Wind Chill: 13°   Ceiling: 800
Heat Index: 13°   Visibility: 9mi
Dew Point: 12°   Wind: 10mph
Humidity: 94%   Direction: 340°NNW
Pressure: 29.6"   Gusts: 23mph
Location:  42.1315°N, 70.8467°W
Report Text: KGHG 231330Z AUTO 34009G20KT 010V360 9SM OVC008 13/12 A2960 RMK AO2 LTG DSNT E AND S
Loading
Personal Weather Stations






























Interactive Weather Map
Tropical Storm Tracking
New forecast layout! Learn more

10-Day Weather Forecast

Advertisements
Track Severe Weather on mobile